createdAt,value
2023-05-02T00:01:29.302Z,8.97
2023-05-02T00:06:32.450Z,8.96
2023-05-02T00:11:35.501Z,8.92
2023-05-02T00:16:41.306Z,8.88
2023-05-02T00:21:50.341Z,8.84
2023-05-02T00:26:53.276Z,8.87
2023-05-02T00:31:56.961Z,8.89
2023-05-02T00:37:00.585Z,8.90
2023-05-02T00:42:03.590Z,8.95
2023-05-02T00:47:06.739Z,8.98
2023-05-02T00:52:09.863Z,8.93
2023-05-02T00:57:12.835Z,8.92
2023-05-02T01:02:36.896Z,8.88
2023-05-02T01:07:45.651Z,8.86
2023-05-02T01:13:00.678Z,8.86
2023-05-02T01:18:05.804Z,8.84
2023-05-02T01:23:28.888Z,8.82
2023-05-02T01:28:44.244Z,8.76
2023-05-02T01:33:48.810Z,8.71
2023-05-02T01:38:53.080Z,8.70
2023-05-02T01:44:02.089Z,8.65
2023-05-02T01:49:09.310Z,8.62
2023-05-02T01:54:14.314Z,8.63
2023-05-02T01:59:24.078Z,8.62
2023-05-02T02:04:28.859Z,8.61
2023-05-02T02:09:31.987Z,8.64
2023-05-02T02:14:38.677Z,8.67
2023-05-02T02:19:43.049Z,8.72
2023-05-02T02:24:47.659Z,8.73
2023-05-02T02:29:50.646Z,8.75
2023-05-02T02:34:53.907Z,8.73
2023-05-02T02:40:50.545Z,8.72
2023-05-02T02:46:21.270Z,8.72
2023-05-02T02:51:33.038Z,8.69
2023-05-02T02:56:47.802Z,8.65
2023-05-02T03:02:07.315Z,8.62
2023-05-02T03:07:10.828Z,8.60
2023-05-02T03:12:14.527Z,8.62
2023-05-02T03:17:17.360Z,8.64
2023-05-02T03:22:20.300Z,8.66
2023-05-02T03:27:23.241Z,8.62
2023-05-02T03:32:28.463Z,8.59
2023-05-02T03:37:31.539Z,8.58
2023-05-02T03:42:41.533Z,8.62
2023-05-02T03:47:44.615Z,8.66
2023-05-02T03:52:47.837Z,8.68
2023-05-02T03:57:53.728Z,8.67
2023-05-02T04:02:56.710Z,8.66
2023-05-02T04:07:59.770Z,8.68
2023-05-02T04:13:04.292Z,8.73
2023-05-02T04:18:07.337Z,8.78
2023-05-02T04:23:10.343Z,8.87
2023-05-02T04:28:13.305Z,9.03
2023-05-02T04:33:16.574Z,9.23
2023-05-02T04:38:19.605Z,9.57
2023-05-02T04:43:24.484Z,9.90
2023-05-02T04:48:27.862Z,10.18
2023-05-02T04:53:33.857Z,10.55
2023-05-02T04:58:36.951Z,10.99
2023-05-02T05:03:40.056Z,11.43
2023-05-02T05:08:45.539Z,11.90
2023-05-02T05:13:48.513Z,12.41
2023-05-02T05:18:54.703Z,12.84
2023-05-02T05:23:57.861Z,13.17
2023-05-02T05:29:00.827Z,13.41
2023-05-02T05:34:04.628Z,13.67
2023-05-02T05:39:10.988Z,13.87
2023-05-02T05:44:14.006Z,14.04
2023-05-02T05:49:19.867Z,14.19
2023-05-02T05:54:23.055Z,14.37
2023-05-02T05:59:26.136Z,14.55
2023-05-02T06:04:29.114Z,14.76
2023-05-02T06:09:32.493Z,15.02
2023-05-02T06:14:35.362Z,15.27
2023-05-02T06:19:38.349Z,15.57
2023-05-02T06:24:41.307Z,15.77
2023-05-02T06:29:44.365Z,15.94
2023-05-02T06:34:47.320Z,16.11
2023-05-02T06:39:50.305Z,16.29
2023-05-02T06:44:53.266Z,16.47
2023-05-02T06:49:56.340Z,16.57
2023-05-02T06:54:59.277Z,16.63
2023-05-02T07:00:02.688Z,16.68
2023-05-02T07:05:07.130Z,16.77
2023-05-02T07:10:11.453Z,16.91
2023-05-02T07:15:14.473Z,17.08
2023-05-02T07:20:20.596Z,17.23
2023-05-02T07:25:23.610Z,17.35
2023-05-02T07:30:29.441Z,17.43
2023-05-02T07:35:32.375Z,17.56
2023-05-02T07:40:35.618Z,17.67
2023-05-02T07:45:38.580Z,17.76
2023-05-02T07:50:41.561Z,17.83
2023-05-02T07:55:44.528Z,17.90
2023-05-02T08:00:47.518Z,18.00
2023-05-02T08:05:50.444Z,18.10
2023-05-02T08:10:53.361Z,18.19
2023-05-02T08:16:00.005Z,18.23
2023-05-02T08:21:03.085Z,18.26
2023-05-02T08:26:06.697Z,18.34
2023-05-02T08:31:12.538Z,18.43
2023-05-02T08:36:18.504Z,18.49
2023-05-02T08:41:22.930Z,18.44
2023-05-02T08:46:27.169Z,18.48
2023-05-02T08:51:32.815Z,18.51
2023-05-02T08:56:36.237Z,18.57
2023-05-02T09:01:41.801Z,18.62
2023-05-02T09:06:45.275Z,18.67
2023-05-02T09:11:49.988Z,18.67
2023-05-02T09:16:59.382Z,18.72
2023-05-02T09:22:02.619Z,18.78
2023-05-02T09:27:06.028Z,18.82
2023-05-02T09:32:09.088Z,18.90
2023-05-02T09:37:15.802Z,18.93
2023-05-02T09:42:31.604Z,19.01
2023-05-02T09:47:34.666Z,19.05
2023-05-02T09:52:37.909Z,18.99
2023-05-02T09:57:41.821Z,18.99
2023-05-02T10:02:48.119Z,18.99
2023-05-02T10:07:51.171Z,18.93
2023-05-02T10:12:55.397Z,18.96
2023-05-02T10:18:01.354Z,18.96
2023-05-02T10:23:05.002Z,18.99
2023-05-02T10:28:08.306Z,19.05
2023-05-02T10:33:14.186Z,19.09
2023-05-02T10:38:22.294Z,19.13
2023-05-02T10:43:31.248Z,19.10
2023-05-02T10:48:34.393Z,19.05
2023-05-02T10:53:44.923Z,19.01
2023-05-02T10:58:54.028Z,18.98
2023-05-02T11:04:02.437Z,18.92
2023-05-02T11:09:31.266Z,18.91
2023-05-02T11:14:43.390Z,18.94
2023-05-02T11:19:46.396Z,18.98
2023-05-02T11:24:51.313Z,19.03
2023-05-02T11:30:09.988Z,19.13
2023-05-02T11:35:27.293Z,19.30
2023-05-02T11:40:31.838Z,19.43
2023-05-02T11:45:39.346Z,19.42
2023-05-02T11:50:49.679Z,19.36
2023-05-02T11:56:03.091Z,19.37
2023-05-02T12:01:16.524Z,19.51
2023-05-02T12:06:20.189Z,19.69
2023-05-02T12:11:23.926Z,19.64
2023-05-02T12:16:27.007Z,19.53
2023-05-02T12:21:30.189Z,19.52
2023-05-02T12:26:35.816Z,19.61
2023-05-02T12:31:39.226Z,19.75
2023-05-02T12:36:45.565Z,19.89
2023-05-02T12:41:48.562Z,19.96
2023-05-02T12:47:01.548Z,19.95
2023-05-02T12:52:04.680Z,19.85
2023-05-02T12:57:08.760Z,19.85
2023-05-02T13:02:11.795Z,19.85
2023-05-02T13:07:14.690Z,19.76
2023-05-02T13:12:18.234Z,19.76
2023-05-02T13:17:21.875Z,19.74
2023-05-02T13:22:25.909Z,19.69
2023-05-02T13:27:29.038Z,19.66
2023-05-02T13:32:31.939Z,19.72
2023-05-02T13:37:35.014Z,19.76
2023-05-02T13:42:37.840Z,19.74
2023-05-02T13:47:41.634Z,19.74
2023-05-02T13:52:46.990Z,19.71
2023-05-02T13:57:51.671Z,19.68
2023-05-02T14:02:54.874Z,19.61
2023-05-02T14:07:57.895Z,19.54
2023-05-02T14:13:00.853Z,19.42
2023-05-02T14:18:03.992Z,19.28
2023-05-02T14:23:07.680Z,19.14
2023-05-02T14:28:12.411Z,19.07
2023-05-02T14:33:16.415Z,19.03
2023-05-02T14:38:19.364Z,18.95
2023-05-02T14:43:22.574Z,18.84
2023-05-02T14:48:25.618Z,18.71
2023-05-02T14:53:28.576Z,18.61
2023-05-02T14:58:31.533Z,18.54
2023-05-02T15:03:36.376Z,18.48
2023-05-02T15:08:43.713Z,18.39
2023-05-02T15:13:49.630Z,18.31
2023-05-02T15:18:55.638Z,18.27
2023-05-02T15:23:58.937Z,18.25
2023-05-02T15:29:01.981Z,18.21
2023-05-02T15:34:04.932Z,18.14
2023-05-02T15:39:07.885Z,18.12
2023-05-02T15:44:10.820Z,18.30
2023-05-02T15:49:13.915Z,18.46
2023-05-02T15:54:16.690Z,18.29
2023-05-02T15:59:19.552Z,18.08
2023-05-02T16:04:22.653Z,17.92
2023-05-02T16:09:28.399Z,17.81
2023-05-02T16:14:31.342Z,17.70
2023-05-02T16:19:34.306Z,17.58
2023-05-02T16:24:37.408Z,17.47
2023-05-02T16:29:40.983Z,17.39
2023-05-02T16:34:43.935Z,17.34
2023-05-02T16:39:47.138Z,17.22
2023-05-02T16:44:52.704Z,17.14
2023-05-02T16:50:00.585Z,17.08
2023-05-02T16:55:06.990Z,17.00
2023-05-02T17:00:12.460Z,16.96
2023-05-02T17:05:15.911Z,16.90
2023-05-02T17:10:19.215Z,16.83
2023-05-02T17:15:24.738Z,16.76
2023-05-02T17:20:27.785Z,16.71
2023-05-02T17:25:31.362Z,16.65
2023-05-02T17:30:34.411Z,16.60
2023-05-02T17:35:37.545Z,16.55
2023-05-02T17:40:40.506Z,16.54
2023-05-02T17:45:43.763Z,16.51
2023-05-02T17:50:46.864Z,16.49
2023-05-02T17:55:49.778Z,16.49
2023-05-02T18:00:52.703Z,16.47
2023-05-02T18:05:55.672Z,16.46
2023-05-02T18:10:59.484Z,16.44
2023-05-02T18:16:02.570Z,16.42
2023-05-02T18:21:11.924Z,16.37
2023-05-02T18:26:15.216Z,16.34
2023-05-02T18:31:18.170Z,16.29
2023-05-02T18:36:29.256Z,16.20
2023-05-02T18:41:32.787Z,16.11
2023-05-02T18:46:37.723Z,16.06
2023-05-02T18:51:40.598Z,16.01
2023-05-02T18:56:43.847Z,15.95
2023-05-02T19:01:48.565Z,15.82
2023-05-02T19:06:51.645Z,15.79
2023-05-02T19:11:55.165Z,15.78
2023-05-02T19:16:58.138Z,15.78
2023-05-02T19:22:01.443Z,15.78
2023-05-02T19:27:06.876Z,15.81
2023-05-02T19:32:10.049Z,15.88
2023-05-02T19:37:13.000Z,15.95
2023-05-02T19:42:15.920Z,15.99
2023-05-02T19:47:18.885Z,15.99
2023-05-02T19:52:21.832Z,15.97
2023-05-02T19:57:24.917Z,15.93
2023-05-02T20:02:28.038Z,15.88
2023-05-02T20:07:31.266Z,15.83
2023-05-02T20:12:34.264Z,15.76
2023-05-02T20:17:38.441Z,15.70
2023-05-02T20:22:42.482Z,15.64
2023-05-02T20:27:46.046Z,15.63
2023-05-02T20:32:49.184Z,15.60
2023-05-02T20:37:52.179Z,15.65
2023-05-02T20:42:55.128Z,15.74
2023-05-02T20:47:58.190Z,15.79
2023-05-02T20:53:01.199Z,15.70
2023-05-02T20:58:04.131Z,15.56
2023-05-02T21:03:07.150Z,15.40
2023-05-02T21:08:10.192Z,15.23
2023-05-02T21:13:13.661Z,15.01
2023-05-02T21:18:17.143Z,14.84
2023-05-02T21:23:20.122Z,14.80
2023-05-02T21:28:23.099Z,14.75
2023-05-02T21:33:26.017Z,14.64
2023-05-02T21:38:29.205Z,14.55
2023-05-02T21:43:38.140Z,14.49
2023-05-02T21:48:41.167Z,14.41
2023-05-02T21:53:44.101Z,14.34
2023-05-02T21:58:49.675Z,14.31
2023-05-02T22:03:52.593Z,14.24
2023-05-02T22:08:55.753Z,14.13
2023-05-02T22:13:58.694Z,14.02
2023-05-02T22:19:01.685Z,13.94
2023-05-02T22:24:05.096Z,13.93
2023-05-02T22:29:08.039Z,13.93
2023-05-02T22:34:11.099Z,13.97
2023-05-02T22:39:15.740Z,13.95
2023-05-02T22:44:18.832Z,13.94
2023-05-02T22:49:21.816Z,13.91
2023-05-02T22:54:24.966Z,13.89
2023-05-02T22:59:29.735Z,13.86
2023-05-02T23:04:33.549Z,13.75
2023-05-02T23:09:36.504Z,13.71
2023-05-02T23:14:39.474Z,13.71
2023-05-02T23:19:45.328Z,13.76
2023-05-02T23:24:48.488Z,13.80
2023-05-02T23:29:51.804Z,13.82
2023-05-02T23:34:56.124Z,13.77
2023-05-02T23:40:01.028Z,13.69
2023-05-02T23:45:05.274Z,13.63
2023-05-02T23:50:08.733Z,13.61
2023-05-02T23:55:11.562Z,13.62
